sensor_id;sensor_type;location;lat;lon;timestamp;P1;durP1;ratioP1;P2;durP2;ratioP2
23119;SDS011;11729;50.836;4.330;2023-04-16T00:02:10;23.58;;;9.27;;
23119;SDS011;11729;50.836;4.330;2023-04-16T00:04:37;18.63;;;9.10;;
23119;SDS011;11729;50.836;4.330;2023-04-16T00:07:02;16.85;;;8.73;;
23119;SDS011;11729;50.836;4.330;2023-04-16T00:09:39;11.88;;;8.20;;
23119;SDS011;11729;50.836;4.330;2023-04-16T00:12:06;13.55;;;8.45;;
23119;SDS011;11729;50.836;4.330;2023-04-16T00:14:31;16.02;;;9.00;;
23119;SDS011;11729;50.836;4.330;2023-04-16T00:16:57;15.70;;;9.48;;
23119;SDS011;11729;50.836;4.330;2023-04-16T00:19:22;20.48;;;9.23;;
23119;SDS011;11729;50.836;4.330;2023-04-16T00:21:48;16.50;;;9.65;;
23119;SDS011;11729;50.836;4.330;2023-04-16T00:24:13;18.13;;;9.63;;
23119;SDS011;11729;50.836;4.330;2023-04-16T00:26:39;17.77;;;10.43;;
23119;SDS011;11729;50.836;4.330;2023-04-16T00:29:08;15.45;;;10.73;;
23119;SDS011;11729;50.836;4.330;2023-04-16T00:31:33;20.35;;;11.00;;
23119;SDS011;11729;50.836;4.330;2023-04-16T00:33:59;20.48;;;11.50;;
23119;SDS011;11729;50.836;4.330;2023-04-16T00:36:25;21.60;;;11.10;;
23119;SDS011;11729;50.836;4.330;2023-04-16T00:38:52;15.48;;;10.75;;
23119;SDS011;11729;50.836;4.330;2023-04-16T00:41:20;18.67;;;10.90;;
23119;SDS011;11729;50.836;4.330;2023-04-16T00:43:47;21.08;;;10.50;;
23119;SDS011;11729;50.836;4.330;2023-04-16T00:46:13;13.25;;;9.40;;
23119;SDS011;11729;50.836;4.330;2023-04-16T00:48:40;15.45;;;9.18;;
23119;SDS011;11729;50.836;4.330;2023-04-16T00:51:08;12.60;;;8.77;;
23119;SDS011;11729;50.836;4.330;2023-04-16T00:53:35;12.32;;;8.35;;
23119;SDS011;11729;50.836;4.330;2023-04-16T00:56:02;11.95;;;7.85;;
23119;SDS011;11729;50.836;4.330;2023-04-16T00:58:31;12.25;;;7.93;;
23119;SDS011;11729;50.836;4.330;2023-04-16T01:00:58;17.47;;;8.07;;
23119;SDS011;11729;50.836;4.330;2023-04-16T01:03:26;9.32;;;7.68;;
23119;SDS011;11729;50.836;4.330;2023-04-16T01:06:13;9.70;;;7.93;;
23119;SDS011;11729;50.836;4.330;2023-04-16T01:08:42;11.90;;;8.13;;
23119;SDS011;11729;50.836;4.330;2023-04-16T01:11:09;8.07;;;6.80;;
23119;SDS011;11729;50.836;4.330;2023-04-16T01:13:35;13.73;;;6.40;;
23119;SDS011;11729;50.836;4.330;2023-04-16T01:16:07;17.30;;;7.38;;
23119;SDS011;11729;50.836;4.330;2023-04-16T01:18:34;14.85;;;7.10;;
23119;SDS011;11729;50.836;4.330;2023-04-16T01:21:00;15.02;;;7.70;;
23119;SDS011;11729;50.836;4.330;2023-04-16T01:23:25;12.50;;;7.63;;
23119;SDS011;11729;50.836;4.330;2023-04-16T01:25:51;9.52;;;8.05;;
23119;SDS011;11729;50.836;4.330;2023-04-16T01:28:17;11.25;;;8.02;;
23119;SDS011;11729;50.836;4.330;2023-04-16T01:30:42;12.45;;;7.65;;
23119;SDS011;11729;50.836;4.330;2023-04-16T01:33:11;14.05;;;7.70;;
23119;SDS011;11729;50.836;4.330;2023-04-16T01:35:38;11.65;;;7.70;;
23119;SDS011;11729;50.836;4.330;2023-04-16T01:38:05;11.85;;;7.95;;
23119;SDS011;11729;50.836;4.330;2023-04-16T01:40:32;11.93;;;8.13;;
23119;SDS011;11729;50.836;4.330;2023-04-16T01:42:58;16.10;;;8.00;;
23119;SDS011;11729;50.836;4.330;2023-04-16T01:45:24;12.32;;;8.15;;
23119;SDS011;11729;50.836;4.330;2023-04-16T01:47:50;12.98;;;7.65;;
23119;SDS011;11729;50.836;4.330;2023-04-16T01:50:16;9.77;;;7.57;;
23119;SDS011;11729;50.836;4.330;2023-04-16T01:52:43;11.60;;;7.60;;
23119;SDS011;11729;50.836;4.330;2023-04-16T01:55:09;15.82;;;7.88;;
23119;SDS011;11729;50.836;4.330;2023-04-16T01:57:35;10.60;;;7.70;;
23119;SDS011;11729;50.836;4.330;2023-04-16T02:00:02;10.38;;;7.30;;
23119;SDS011;11729;50.836;4.330;2023-04-16T02:02:28;15.18;;;7.95;;
23119;SDS011;11729;50.836;4.330;2023-04-16T02:04:54;10.63;;;7.35;;
23119;SDS011;11729;50.836;4.330;2023-04-16T02:07:21;12.82;;;7.68;;
23119;SDS011;11729;50.836;4.330;2023-04-16T02:09:47;13.68;;;7.43;;
23119;SDS011;11729;50.836;4.330;2023-04-16T02:12:14;12.30;;;8.00;;
23119;SDS011;11729;50.836;4.330;2023-04-16T02:14:40;12.70;;;7.70;;
23119;SDS011;11729;50.836;4.330;2023-04-16T02:17:06;14.35;;;7.38;;
23119;SDS011;11729;50.836;4.330;2023-04-16T02:19:32;10.27;;;6.72;;
23119;SDS011;11729;50.836;4.330;2023-04-16T02:21:57;9.80;;;6.78;;
23119;SDS011;11729;50.836;4.330;2023-04-16T02:24:25;8.60;;;7.03;;
23119;SDS011;11729;50.836;4.330;2023-04-16T02:26:51;7.70;;;6.88;;
23119;SDS011;11729;50.836;4.330;2023-04-16T02:29:16;11.27;;;7.00;;
23119;SDS011;11729;50.836;4.330;2023-04-16T02:31:42;9.30;;;6.65;;
23119;SDS011;11729;50.836;4.330;2023-04-16T02:34:08;9.50;;;7.53;;
23119;SDS011;11729;50.836;4.330;2023-04-16T02:36:34;11.68;;;7.57;;
23119;SDS011;11729;50.836;4.330;2023-04-16T02:38:59;10.27;;;6.95;;
23119;SDS011;11729;50.836;4.330;2023-04-16T02:41:25;13.02;;;7.60;;
23119;SDS011;11729;50.836;4.330;2023-04-16T02:43:50;9.93;;;6.90;;
23119;SDS011;11729;50.836;4.330;2023-04-16T02:46:16;11.63;;;8.02;;
23119;SDS011;11729;50.836;4.330;2023-04-16T02:48:41;10.23;;;7.28;;
23119;SDS011;11729;50.836;4.330;2023-04-16T02:51:07;11.27;;;7.95;;
23119;SDS011;11729;50.836;4.330;2023-04-16T02:53:33;14.88;;;7.30;;
23119;SDS011;11729;50.836;4.330;2023-04-16T02:55:58;12.48;;;7.80;;
23119;SDS011;11729;50.836;4.330;2023-04-16T02:58:24;8.07;;;7.30;;
23119;SDS011;11729;50.836;4.330;2023-04-16T03:00:51;10.68;;;7.18;;
23119;SDS011;11729;50.836;4.330;2023-04-16T03:03:17;11.05;;;7.70;;
23119;SDS011;11729;50.836;4.330;2023-04-16T03:05:43;9.18;;;6.80;;
23119;SDS011;11729;50.836;4.330;2023-04-16T03:08:09;10.40;;;7.40;;
23119;SDS011;11729;50.836;4.330;2023-04-16T03:10:35;12.57;;;6.70;;
23119;SDS011;11729;50.836;4.330;2023-04-16T03:13:01;8.40;;;7.05;;
23119;SDS011;11729;50.836;4.330;2023-04-16T03:15:27;8.27;;;6.68;;
23119;SDS011;11729;50.836;4.330;2023-04-16T03:17:53;8.90;;;7.05;;
23119;SDS011;11729;50.836;4.330;2023-04-16T03:20:18;10.57;;;6.78;;
23119;SDS011;11729;50.836;4.330;2023-04-16T03:22:46;10.27;;;6.60;;
23119;SDS011;11729;50.836;4.330;2023-04-16T03:25:11;13.98;;;6.10;;
23119;SDS011;11729;50.836;4.330;2023-04-16T03:27:37;11.73;;;6.78;;
23119;SDS011;11729;50.836;4.330;2023-04-16T03:32:32;9.38;;;6.45;;
23119;SDS011;11729;50.836;4.330;2023-04-16T03:34:58;8.80;;;6.15;;
23119;SDS011;11729;50.836;4.330;2023-04-16T03:37:23;11.80;;;6.28;;
23119;SDS011;11729;50.836;4.330;2023-04-16T03:39:49;10.02;;;6.18;;
23119;SDS011;11729;50.836;4.330;2023-04-16T03:42:15;11.32;;;6.88;;
23119;SDS011;11729;50.836;4.330;2023-04-16T03:44:41;14.43;;;6.60;;
23119;SDS011;11729;50.836;4.330;2023-04-16T03:47:07;10.85;;;6.47;;
23119;SDS011;11729;50.836;4.330;2023-04-16T03:49:33;13.77;;;6.57;;
23119;SDS011;11729;50.836;4.330;2023-04-16T03:51:58;11.57;;;6.45;;
23119;SDS011;11729;50.836;4.330;2023-04-16T03:54:24;13.95;;;7.30;;
23119;SDS011;11729;50.836;4.330;2023-04-16T03:56:49;13.38;;;6.18;;
23119;SDS011;11729;50.836;4.330;2023-04-16T03:59:16;11.27;;;6.45;;
23119;SDS011;11729;50.836;4.330;2023-04-16T04:01:42;13.50;;;6.70;;
23119;SDS011;11729;50.836;4.330;2023-04-16T04:04:07;9.98;;;6.55;;
23119;SDS011;11729;50.836;4.330;2023-04-16T04:06:34;13.50;;;6.60;;
23119;SDS011;11729;50.836;4.330;2023-04-16T04:09:00;10.73;;;6.85;;
23119;SDS011;11729;50.836;4.330;2023-04-16T04:11:26;15.98;;;7.00;;
23119;SDS011;11729;50.836;4.330;2023-04-16T04:13:52;12.00;;;6.85;;
23119;SDS011;11729;50.836;4.330;2023-04-16T04:16:17;7.13;;;6.20;;
23119;SDS011;11729;50.836;4.330;2023-04-16T04:18:43;9.07;;;6.60;;
23119;SDS011;11729;50.836;4.330;2023-04-16T04:21:08;9.00;;;6.82;;
23119;SDS011;11729;50.836;4.330;2023-04-16T04:23:35;11.88;;;6.63;;
23119;SDS011;11729;50.836;4.330;2023-04-16T04:26:01;8.52;;;6.93;;
23119;SDS011;11729;50.836;4.330;2023-04-16T04:28:28;9.70;;;7.20;;
23119;SDS011;11729;50.836;4.330;2023-04-16T04:30:55;7.22;;;6.53;;
23119;SDS011;11729;50.836;4.330;2023-04-16T04:33:21;9.30;;;6.80;;
23119;SDS011;11729;50.836;4.330;2023-04-16T04:35:47;9.07;;;7.00;;
23119;SDS011;11729;50.836;4.330;2023-04-16T04:38:12;9.75;;;7.43;;
23119;SDS011;11729;50.836;4.330;2023-04-16T04:40:38;8.68;;;7.47;;
23119;SDS011;11729;50.836;4.330;2023-04-16T04:43:04;8.57;;;7.57;;
23119;SDS011;11729;50.836;4.330;2023-04-16T04:45:29;7.97;;;7.03;;
23119;SDS011;11729;50.836;4.330;2023-04-16T04:47:55;10.93;;;7.13;;
23119;SDS011;11729;50.836;4.330;2023-04-16T04:50:20;13.93;;;7.55;;
23119;SDS011;11729;50.836;4.330;2023-04-16T04:52:46;10.38;;;6.85;;
23119;SDS011;11729;50.836;4.330;2023-04-16T04:55:12;15.45;;;6.70;;
23119;SDS011;11729;50.836;4.330;2023-04-16T04:57:40;9.80;;;6.82;;
23119;SDS011;11729;50.836;4.330;2023-04-16T05:00:06;12.07;;;6.90;;
23119;SDS011;11729;50.836;4.330;2023-04-16T05:02:33;12.00;;;6.75;;
23119;SDS011;11729;50.836;4.330;2023-04-16T05:04:58;9.98;;;6.85;;
23119;SDS011;11729;50.836;4.330;2023-04-16T05:07:24;13.73;;;6.75;;
23119;SDS011;11729;50.836;4.330;2023-04-16T05:09:49;9.82;;;6.90;;
23119;SDS011;11729;50.836;4.330;2023-04-16T05:12:15;13.55;;;6.85;;
23119;SDS011;11729;50.836;4.330;2023-04-16T05:14:41;13.10;;;6.45;;
23119;SDS011;11729;50.836;4.330;2023-04-16T05:17:07;15.25;;;6.53;;
23119;SDS011;11729;50.836;4.330;2023-04-16T05:19:34;13.27;;;6.53;;
23119;SDS011;11729;50.836;4.330;2023-04-16T05:22:00;12.57;;;6.68;;
23119;SDS011;11729;50.836;4.330;2023-04-16T05:24:26;15.70;;;6.93;;
23119;SDS011;11729;50.836;4.330;2023-04-16T05:26:52;11.50;;;6.20;;
23119;SDS011;11729;50.836;4.330;2023-04-16T05:29:18;9.90;;;6.47;;
23119;SDS011;11729;50.836;4.330;2023-04-16T05:31:43;8.27;;;6.03;;
23119;SDS011;11729;50.836;4.330;2023-04-16T05:34:09;16.70;;;6.53;;
23119;SDS011;11729;50.836;4.330;2023-04-16T05:36:35;15.07;;;6.82;;
23119;SDS011;11729;50.836;4.330;2023-04-16T05:39:01;14.95;;;7.70;;
23119;SDS011;11729;50.836;4.330;2023-04-16T05:41:26;8.65;;;7.25;;
23119;SDS011;11729;50.836;4.330;2023-04-16T05:43:52;12.65;;;6.53;;
23119;SDS011;11729;50.836;4.330;2023-04-16T05:46:18;11.18;;;6.80;;
23119;SDS011;11729;50.836;4.330;2023-04-16T05:48:43;11.75;;;6.60;;
23119;SDS011;11729;50.836;4.330;2023-04-16T05:51:11;15.80;;;6.53;;
23119;SDS011;11729;50.836;4.330;2023-04-16T05:53:36;18.93;;;6.67;;
23119;SDS011;11729;50.836;4.330;2023-04-16T05:56:02;7.55;;;6.70;;
23119;SDS011;11729;50.836;4.330;2023-04-16T05:58:28;13.68;;;6.55;;
23119;SDS011;11729;50.836;4.330;2023-04-16T06:00:53;9.52;;;6.30;;
23119;SDS011;11729;50.836;4.330;2023-04-16T06:03:19;11.07;;;6.70;;
23119;SDS011;11729;50.836;4.330;2023-04-16T06:05:45;10.23;;;6.43;;
23119;SDS011;11729;50.836;4.330;2023-04-16T06:08:10;18.27;;;6.80;;
23119;SDS011;11729;50.836;4.330;2023-04-16T06:10:36;13.75;;;6.75;;
23119;SDS011;11729;50.836;4.330;2023-04-16T06:13:02;12.68;;;6.10;;
23119;SDS011;11729;50.836;4.330;2023-04-16T06:15:27;13.75;;;7.25;;
23119;SDS011;11729;50.836;4.330;2023-04-16T06:17:53;16.63;;;7.47;;
23119;SDS011;11729;50.836;4.330;2023-04-16T06:20:19;10.93;;;6.85;;
23119;SDS011;11729;50.836;4.330;2023-04-16T06:22:45;14.80;;;6.95;;
23119;SDS011;11729;50.836;4.330;2023-04-16T06:25:11;10.48;;;6.70;;
23119;SDS011;11729;50.836;4.330;2023-04-16T06:27:36;13.15;;;7.82;;
23119;SDS011;11729;50.836;4.330;2023-04-16T06:30:02;12.45;;;8.02;;
23119;SDS011;11729;50.836;4.330;2023-04-16T06:32:29;15.63;;;7.72;;
23119;SDS011;11729;50.836;4.330;2023-04-16T06:34:55;11.35;;;7.63;;
23119;SDS011;11729;50.836;4.330;2023-04-16T06:37:22;9.60;;;7.37;;
23119;SDS011;11729;50.836;4.330;2023-04-16T06:39:49;11.93;;;7.30;;
23119;SDS011;11729;50.836;4.330;2023-04-16T06:42:16;8.95;;;7.40;;
23119;SDS011;11729;50.836;4.330;2023-04-16T06:44:41;13.95;;;8.48;;
23119;SDS011;11729;50.836;4.330;2023-04-16T06:47:07;10.70;;;8.10;;
23119;SDS011;11729;50.836;4.330;2023-04-16T06:49:32;14.73;;;7.95;;
23119;SDS011;11729;50.836;4.330;2023-04-16T06:51:58;9.38;;;7.72;;
23119;SDS011;11729;50.836;4.330;2023-04-16T06:54:25;13.48;;;8.18;;
23119;SDS011;11729;50.836;4.330;2023-04-16T06:56:51;14.55;;;9.18;;
23119;SDS011;11729;50.836;4.330;2023-04-16T06:59:16;20.80;;;10.27;;
23119;SDS011;11729;50.836;4.330;2023-04-16T07:01:42;18.85;;;10.82;;
23119;SDS011;11729;50.836;4.330;2023-04-16T07:04:07;14.10;;;9.88;;
23119;SDS011;11729;50.836;4.330;2023-04-16T07:06:33;15.63;;;9.60;;
23119;SDS011;11729;50.836;4.330;2023-04-16T07:08:59;19.17;;;9.73;;
23119;SDS011;11729;50.836;4.330;2023-04-16T07:11:24;13.88;;;10.13;;
23119;SDS011;11729;50.836;4.330;2023-04-16T07:13:50;14.05;;;10.23;;
23119;SDS011;11729;50.836;4.330;2023-04-16T07:16:17;18.42;;;10.27;;
23119;SDS011;11729;50.836;4.330;2023-04-16T07:18:43;23.13;;;10.73;;
23119;SDS011;11729;50.836;4.330;2023-04-16T07:21:08;19.90;;;11.00;;
23119;SDS011;11729;50.836;4.330;2023-04-16T07:23:34;20.45;;;11.38;;
23119;SDS011;11729;50.836;4.330;2023-04-16T07:26:00;18.92;;;10.82;;
23119;SDS011;11729;50.836;4.330;2023-04-16T07:28:25;16.63;;;10.38;;
23119;SDS011;11729;50.836;4.330;2023-04-16T07:30:51;24.83;;;10.70;;
23119;SDS011;11729;50.836;4.330;2023-04-16T07:33:18;17.00;;;10.32;;
23119;SDS011;11729;50.836;4.330;2023-04-16T07:35:43;20.15;;;10.38;;
23119;SDS011;11729;50.836;4.330;2023-04-16T07:38:09;15.40;;;9.43;;
23119;SDS011;11729;50.836;4.330;2023-04-16T07:40:35;13.95;;;9.32;;
23119;SDS011;11729;50.836;4.330;2023-04-16T07:43:01;14.95;;;9.05;;
23119;SDS011;11729;50.836;4.330;2023-04-16T07:45:27;14.82;;;9.00;;
23119;SDS011;11729;50.836;4.330;2023-04-16T07:47:52;16.65;;;9.98;;
23119;SDS011;11729;50.836;4.330;2023-04-16T07:50:18;12.27;;;9.20;;
23119;SDS011;11729;50.836;4.330;2023-04-16T07:52:44;15.25;;;9.32;;
23119;SDS011;11729;50.836;4.330;2023-04-16T07:55:11;19.27;;;10.07;;
23119;SDS011;11729;50.836;4.330;2023-04-16T07:57:37;16.95;;;10.23;;
23119;SDS011;11729;50.836;4.330;2023-04-16T08:00:05;17.40;;;10.48;;
23119;SDS011;11729;50.836;4.330;2023-04-16T08:02:31;16.10;;;10.13;;
23119;SDS011;11729;50.836;4.330;2023-04-16T08:04:57;21.02;;;11.45;;
23119;SDS011;11729;50.836;4.330;2023-04-16T08:07:25;19.85;;;11.48;;
23119;SDS011;11729;50.836;4.330;2023-04-16T08:09:52;27.20;;;12.10;;
23119;SDS011;11729;50.836;4.330;2023-04-16T08:12:18;21.40;;;12.27;;
23119;SDS011;11729;50.836;4.330;2023-04-16T08:14:45;20.60;;;12.57;;
23119;SDS011;11729;50.836;4.330;2023-04-16T08:17:11;20.85;;;13.45;;
23119;SDS011;11729;50.836;4.330;2023-04-16T08:19:37;21.83;;;13.02;;
23119;SDS011;11729;50.836;4.330;2023-04-16T08:22:03;24.08;;;14.05;;
23119;SDS011;11729;50.836;4.330;2023-04-16T08:24:29;25.15;;;14.50;;
23119;SDS011;11729;50.836;4.330;2023-04-16T08:26:57;26.55;;;14.48;;
23119;SDS011;11729;50.836;4.330;2023-04-16T08:29:24;26.83;;;15.60;;
23119;SDS011;11729;50.836;4.330;2023-04-16T08:31:50;25.98;;;14.60;;
23119;SDS011;11729;50.836;4.330;2023-04-16T08:34:18;25.10;;;14.05;;
23119;SDS011;11729;50.836;4.330;2023-04-16T08:36:43;25.23;;;14.60;;
23119;SDS011;11729;50.836;4.330;2023-04-16T08:39:10;21.10;;;14.38;;
23119;SDS011;11729;50.836;4.330;2023-04-16T08:41:35;24.17;;;14.98;;
23119;SDS011;11729;50.836;4.330;2023-04-16T08:44:06;21.88;;;14.10;;
23119;SDS011;11729;50.836;4.330;2023-04-16T08:46:35;26.20;;;14.75;;
23119;SDS011;11729;50.836;4.330;2023-04-16T08:51:29;27.50;;;15.20;;
23119;SDS011;11729;50.836;4.330;2023-04-16T08:54:02;23.58;;;14.57;;
23119;SDS011;11729;50.836;4.330;2023-04-16T08:56:38;25.55;;;14.48;;
23119;SDS011;11729;50.836;4.330;2023-04-16T08:59:07;27.90;;;15.50;;
23119;SDS011;11729;50.836;4.330;2023-04-16T09:01:34;26.00;;;15.65;;
23119;SDS011;11729;50.836;4.330;2023-04-16T09:04:01;24.15;;;15.32;;
23119;SDS011;11729;50.836;4.330;2023-04-16T09:06:28;24.60;;;14.68;;
23119;SDS011;11729;50.836;4.330;2023-04-16T09:08:55;26.48;;;15.07;;
23119;SDS011;11729;50.836;4.330;2023-04-16T09:11:22;21.50;;;14.93;;
23119;SDS011;11729;50.836;4.330;2023-04-16T09:13:50;23.88;;;15.10;;
23119;SDS011;11729;50.836;4.330;2023-04-16T09:16:16;25.75;;;15.98;;
23119;SDS011;11729;50.836;4.330;2023-04-16T09:18:44;25.87;;;15.33;;
23119;SDS011;11729;50.836;4.330;2023-04-16T09:21:12;25.52;;;15.80;;
23119;SDS011;11729;50.836;4.330;2023-04-16T09:23:39;28.70;;;14.97;;
23119;SDS011;11729;50.836;4.330;2023-04-16T09:26:05;24.10;;;14.90;;
23119;SDS011;11729;50.836;4.330;2023-04-16T09:28:40;25.80;;;15.82;;
23119;SDS011;11729;50.836;4.330;2023-04-16T09:31:13;26.35;;;15.35;;
23119;SDS011;11729;50.836;4.330;2023-04-16T09:33:40;25.00;;;14.75;;
23119;SDS011;11729;50.836;4.330;2023-04-16T09:36:07;26.70;;;15.27;;
23119;SDS011;11729;50.836;4.330;2023-04-16T09:38:46;19.52;;;14.10;;
23119;SDS011;11729;50.836;4.330;2023-04-16T09:41:13;23.90;;;14.98;;
23119;SDS011;11729;50.836;4.330;2023-04-16T09:43:48;25.42;;;15.10;;
23119;SDS011;11729;50.836;4.330;2023-04-16T09:46:19;24.42;;;15.35;;
23119;SDS011;11729;50.836;4.330;2023-04-16T09:48:45;22.60;;;14.75;;
23119;SDS011;11729;50.836;4.330;2023-04-16T09:51:11;30.55;;;14.70;;
23119;SDS011;11729;50.836;4.330;2023-04-16T09:53:37;20.10;;;13.25;;
23119;SDS011;11729;50.836;4.330;2023-04-16T09:56:04;26.50;;;13.35;;
23119;SDS011;11729;50.836;4.330;2023-04-16T09:58:31;20.70;;;14.15;;
23119;SDS011;11729;50.836;4.330;2023-04-16T10:01:00;23.65;;;14.85;;
23119;SDS011;11729;50.836;4.330;2023-04-16T10:03:31;29.45;;;16.15;;
23119;SDS011;11729;50.836;4.330;2023-04-16T10:08:46;23.15;;;14.50;;
23119;SDS011;11729;50.836;4.330;2023-04-16T10:11:15;21.92;;;14.95;;
23119;SDS011;11729;50.836;4.330;2023-04-16T10:13:41;18.90;;;13.45;;
23119;SDS011;11729;50.836;4.330;2023-04-16T10:16:07;22.60;;;14.55;;
23119;SDS011;11729;50.836;4.330;2023-04-16T10:18:37;22.67;;;15.02;;
23119;SDS011;11729;50.836;4.330;2023-04-16T10:21:04;26.90;;;15.30;;
23119;SDS011;11729;50.836;4.330;2023-04-16T10:23:33;22.88;;;14.40;;
23119;SDS011;11729;50.836;4.330;2023-04-16T10:26:00;16.73;;;13.52;;
23119;SDS011;11729;50.836;4.330;2023-04-16T10:28:26;20.95;;;14.20;;
23119;SDS011;11729;50.836;4.330;2023-04-16T10:30:53;21.83;;;14.50;;
23119;SDS011;11729;50.836;4.330;2023-04-16T10:33:22;19.75;;;14.07;;
23119;SDS011;11729;50.836;4.330;2023-04-16T10:36:12;21.50;;;14.50;;
23119;SDS011;11729;50.836;4.330;2023-04-16T10:38:40;20.02;;;13.50;;
23119;SDS011;11729;50.836;4.330;2023-04-16T10:41:13;19.25;;;14.07;;
23119;SDS011;11729;50.836;4.330;2023-04-16T10:43:47;21.35;;;14.52;;
23119;SDS011;11729;50.836;4.330;2023-04-16T10:46:25;22.23;;;14.48;;
23119;SDS011;11729;50.836;4.330;2023-04-16T10:48:58;18.67;;;14.43;;
23119;SDS011;11729;50.836;4.330;2023-04-16T10:51:29;23.15;;;15.02;;
23119;SDS011;11729;50.836;4.330;2023-04-16T10:56:33;22.83;;;14.00;;
23119;SDS011;11729;50.836;4.330;2023-04-16T10:59:00;22.33;;;14.57;;
23119;SDS011;11729;50.836;4.330;2023-04-16T11:01:29;20.77;;;14.10;;
23119;SDS011;11729;50.836;4.330;2023-04-16T11:03:59;22.70;;;13.77;;
23119;SDS011;11729;50.836;4.330;2023-04-16T11:07:05;17.52;;;13.65;;
23119;SDS011;11729;50.836;4.330;2023-04-16T11:12:18;22.58;;;15.68;;
23119;SDS011;11729;50.836;4.330;2023-04-16T11:14:49;24.20;;;14.38;;
23119;SDS011;11729;50.836;4.330;2023-04-16T11:17:22;22.38;;;14.10;;
23119;SDS011;11729;50.836;4.330;2023-04-16T11:19:51;23.30;;;15.70;;
23119;SDS011;11729;50.836;4.330;2023-04-16T11:22:17;28.40;;;16.52;;
23119;SDS011;11729;50.836;4.330;2023-04-16T11:24:43;25.67;;;15.82;;
23119;SDS011;11729;50.836;4.330;2023-04-16T11:27:11;21.93;;;15.63;;
23119;SDS011;11729;50.836;4.330;2023-04-16T11:29:37;26.27;;;15.80;;
23119;SDS011;11729;50.836;4.330;2023-04-16T11:32:03;23.75;;;14.90;;
23119;SDS011;11729;50.836;4.330;2023-04-16T11:34:30;26.52;;;13.85;;
23119;SDS011;11729;50.836;4.330;2023-04-16T11:36:55;17.70;;;13.23;;
23119;SDS011;11729;50.836;4.330;2023-04-16T11:39:21;23.45;;;13.68;;
23119;SDS011;11729;50.836;4.330;2023-04-16T11:41:47;26.45;;;14.05;;
23119;SDS011;11729;50.836;4.330;2023-04-16T11:44:24;17.83;;;12.52;;
23119;SDS011;11729;50.836;4.330;2023-04-16T11:46:52;21.92;;;13.13;;
23119;SDS011;11729;50.836;4.330;2023-04-16T11:49:28;21.70;;;14.23;;
23119;SDS011;11729;50.836;4.330;2023-04-16T11:51:55;20.25;;;14.30;;
23119;SDS011;11729;50.836;4.330;2023-04-16T11:54:22;20.55;;;13.98;;
23119;SDS011;11729;50.836;4.330;2023-04-16T11:56:50;25.23;;;15.13;;
23119;SDS011;11729;50.836;4.330;2023-04-16T11:59:21;23.00;;;15.40;;
23119;SDS011;11729;50.836;4.330;2023-04-16T12:01:52;28.00;;;15.98;;
23119;SDS011;11729;50.836;4.330;2023-04-16T12:04:22;22.85;;;14.65;;
23119;SDS011;11729;50.836;4.330;2023-04-16T12:09:34;22.13;;;15.30;;
23119;SDS011;11729;50.836;4.330;2023-04-16T12:12:02;19.65;;;14.80;;
23119;SDS011;11729;50.836;4.330;2023-04-16T12:14:28;25.10;;;15.20;;
23119;SDS011;11729;50.836;4.330;2023-04-16T12:16:56;25.42;;;15.82;;
23119;SDS011;11729;50.836;4.330;2023-04-16T12:19:48;23.95;;;15.50;;
23119;SDS011;11729;50.836;4.330;2023-04-16T12:22:26;23.20;;;14.73;;
23119;SDS011;11729;50.836;4.330;2023-04-16T12:24:57;26.23;;;16.20;;
23119;SDS011;11729;50.836;4.330;2023-04-16T12:27:23;25.80;;;16.38;;
23119;SDS011;11729;50.836;4.330;2023-04-16T12:30:05;22.73;;;15.05;;
23119;SDS011;11729;50.836;4.330;2023-04-16T12:32:32;32.03;;;21.25;;
23119;SDS011;11729;50.836;4.330;2023-04-16T12:34:58;31.60;;;18.80;;
23119;SDS011;11729;50.836;4.330;2023-04-16T12:37:23;30.30;;;18.90;;
23119;SDS011;11729;50.836;4.330;2023-04-16T12:39:49;34.45;;;18.38;;
23119;SDS011;11729;50.836;4.330;2023-04-16T12:42:14;23.42;;;15.05;;
23119;SDS011;11729;50.836;4.330;2023-04-16T12:44:40;26.95;;;18.00;;
23119;SDS011;11729;50.836;4.330;2023-04-16T12:47:07;28.67;;;16.23;;
23119;SDS011;11729;50.836;4.330;2023-04-16T12:49:32;23.80;;;15.65;;
23119;SDS011;11729;50.836;4.330;2023-04-16T12:51:59;23.88;;;15.65;;
23119;SDS011;11729;50.836;4.330;2023-04-16T12:54:26;22.60;;;15.15;;
23119;SDS011;11729;50.836;4.330;2023-04-16T12:56:53;26.92;;;15.43;;
23119;SDS011;11729;50.836;4.330;2023-04-16T12:59:19;21.35;;;14.63;;
23119;SDS011;11729;50.836;4.330;2023-04-16T13:01:44;22.08;;;14.90;;
23119;SDS011;11729;50.836;4.330;2023-04-16T13:04:10;24.50;;;14.85;;
23119;SDS011;11729;50.836;4.330;2023-04-16T13:06:36;24.05;;;15.07;;
23119;SDS011;11729;50.836;4.330;2023-04-16T13:09:09;27.42;;;15.60;;
23119;SDS011;11729;50.836;4.330;2023-04-16T13:11:37;23.95;;;15.38;;
23119;SDS011;11729;50.836;4.330;2023-04-16T13:14:03;22.77;;;16.83;;
23119;SDS011;11729;50.836;4.330;2023-04-16T13:16:28;22.42;;;16.13;;
23119;SDS011;11729;50.836;4.330;2023-04-16T13:18:54;24.40;;;16.60;;
23119;SDS011;11729;50.836;4.330;2023-04-16T13:21:20;23.02;;;16.60;;
23119;SDS011;11729;50.836;4.330;2023-04-16T13:23:46;25.27;;;16.75;;
23119;SDS011;11729;50.836;4.330;2023-04-16T13:26:13;21.52;;;15.93;;
23119;SDS011;11729;50.836;4.330;2023-04-16T13:28:40;24.02;;;15.77;;
23119;SDS011;11729;50.836;4.330;2023-04-16T13:31:05;20.30;;;15.50;;
23119;SDS011;11729;50.836;4.330;2023-04-16T13:33:31;25.13;;;15.38;;
23119;SDS011;11729;50.836;4.330;2023-04-16T13:35:56;24.00;;;15.10;;
23119;SDS011;11729;50.836;4.330;2023-04-16T13:38:22;23.65;;;16.02;;
23119;SDS011;11729;50.836;4.330;2023-04-16T13:40:48;23.23;;;14.90;;
23119;SDS011;11729;50.836;4.330;2023-04-16T13:43:15;23.35;;;15.45;;
23119;SDS011;11729;50.836;4.330;2023-04-16T13:45:42;27.83;;;16.23;;
23119;SDS011;11729;50.836;4.330;2023-04-16T13:48:08;24.63;;;17.52;;
23119;SDS011;11729;50.836;4.330;2023-04-16T13:50:34;45.97;;;20.50;;
23119;SDS011;11729;50.836;4.330;2023-04-16T13:52:59;31.83;;;17.63;;
23119;SDS011;11729;50.836;4.330;2023-04-16T13:55:26;22.67;;;15.25;;
23119;SDS011;11729;50.836;4.330;2023-04-16T13:57:52;24.45;;;14.98;;
23119;SDS011;11729;50.836;4.330;2023-04-16T14:00:17;21.55;;;14.30;;
23119;SDS011;11729;50.836;4.330;2023-04-16T14:02:43;22.65;;;15.25;;
23119;SDS011;11729;50.836;4.330;2023-04-16T14:05:12;21.88;;;13.80;;
23119;SDS011;11729;50.836;4.330;2023-04-16T14:07:38;26.80;;;14.95;;
23119;SDS011;11729;50.836;4.330;2023-04-16T14:10:05;26.98;;;15.15;;
23119;SDS011;11729;50.836;4.330;2023-04-16T14:12:31;25.02;;;16.20;;
23119;SDS011;11729;50.836;4.330;2023-04-16T14:14:57;25.70;;;14.35;;
23119;SDS011;11729;50.836;4.330;2023-04-16T14:17:22;26.83;;;14.68;;
23119;SDS011;11729;50.836;4.330;2023-04-16T14:19:48;21.42;;;15.95;;
23119;SDS011;11729;50.836;4.330;2023-04-16T14:22:14;21.77;;;15.30;;
23119;SDS011;11729;50.836;4.330;2023-04-16T14:24:42;21.90;;;14.57;;
23119;SDS011;11729;50.836;4.330;2023-04-16T14:27:07;23.58;;;15.80;;
23119;SDS011;11729;50.836;4.330;2023-04-16T14:29:33;21.58;;;16.15;;
23119;SDS011;11729;50.836;4.330;2023-04-16T14:32:00;20.63;;;15.13;;
23119;SDS011;11729;50.836;4.330;2023-04-16T14:34:26;24.10;;;16.05;;
23119;SDS011;11729;50.836;4.330;2023-04-16T14:36:52;21.60;;;16.48;;
23119;SDS011;11729;50.836;4.330;2023-04-16T14:39:17;21.52;;;15.38;;
23119;SDS011;11729;50.836;4.330;2023-04-16T14:41:43;21.48;;;14.43;;
23119;SDS011;11729;50.836;4.330;2023-04-16T14:44:09;21.02;;;15.40;;